Lynwood, Minnesota
Current Conditions -  °F | °C
As of 1:53 PM on Friday 31 Oct 2014 (Local Time) from KHIB Reporting Station
Clear Clear  
Wind Chill: 32°   Ceiling: Unl
Heat Index: 36°   Visibility: 10mi
Dew Point: 16°   Wind: 5mph
Humidity: 44%   Direction: 30°NNE
Pressure: 30.5"   Gusts: NA
Location:  47.4158°N, 93.0053°W
Report Text: KHIB 311853Z AUTO 03004KT 10SM CLR 02/M09 A3050 RMK AO2 SLP350 T00221089
Loading
Personal Weather Stations






























Interactive Weather Map
Tropical Storm Tracking
New forecast layout! Learn more

10-Day Weather Forecast

Advertisements
Track Severe Weather on mobile